createdAt,value
2019-02-24T00:01:52.434Z,98.10
2019-02-24T00:04:22.430Z,99.90
2019-02-24T00:06:52.146Z,99.90
2019-02-24T00:09:21.874Z,99.90
2019-02-24T00:11:51.510Z,99.90
2019-02-24T00:14:21.206Z,99.90
2019-02-24T00:16:50.904Z,99.90
2019-02-24T00:19:20.641Z,99.90
2019-02-24T00:21:50.410Z,99.90
2019-02-24T00:24:20.079Z,99.90
2019-02-24T00:26:49.797Z,99.90
2019-02-24T00:29:19.501Z,99.90
2019-02-24T00:31:49.186Z,99.90
2019-02-24T00:34:18.916Z,99.90
2019-02-24T00:36:48.657Z,99.90
2019-02-24T00:39:18.377Z,98.80
2019-02-24T00:41:48.078Z,99.90
2019-02-24T00:44:17.823Z,99.90
2019-02-24T00:46:47.523Z,99.90
2019-02-24T00:49:17.212Z,99.90
2019-02-24T00:51:46.931Z,99.90
2019-02-24T00:54:16.671Z,99.90
2019-02-24T00:56:46.362Z,99.90
2019-02-24T00:59:16.085Z,99.90
2019-02-24T01:01:45.833Z,99.90
2019-02-24T01:04:15.584Z,99.90
2019-02-24T01:06:45.315Z,99.90
2019-02-24T01:09:15.013Z,99.90
2019-02-24T01:11:44.744Z,99.90
2019-02-24T01:14:14.431Z,99.90
2019-02-24T01:16:44.197Z,99.90
2019-02-24T01:19:13.950Z,99.90
2019-02-24T01:21:43.585Z,99.90
2019-02-24T01:24:13.261Z,99.90
2019-02-24T01:26:44.301Z,97.40
2019-02-24T01:29:14.003Z,99.90
2019-02-24T01:31:43.685Z,99.90
2019-02-24T01:34:13.365Z,99.90
2019-02-24T01:36:43.152Z,99.90
2019-02-24T01:39:12.972Z,99.90
2019-02-24T01:41:42.693Z,99.90
2019-02-24T01:44:12.437Z,99.90
2019-02-24T01:46:42.164Z,99.90
2019-02-24T01:49:11.940Z,99.90
2019-02-24T01:51:41.739Z,99.90
2019-02-24T01:54:11.440Z,99.90
2019-02-24T01:56:41.146Z,99.90
2019-02-24T01:59:10.906Z,99.90
2019-02-24T02:01:40.687Z,99.90
2019-02-24T02:04:10.449Z,99.90
2019-02-24T02:06:40.126Z,99.90
2019-02-24T02:09:09.840Z,99.90
2019-02-24T02:11:39.551Z,99.90
2019-02-24T02:14:09.329Z,99.90
2019-02-24T02:16:39.071Z,99.90
2019-02-24T02:19:08.876Z,99.90
2019-02-24T02:21:41.008Z,99.90
2019-02-24T02:24:10.867Z,99.90
2019-02-24T02:26:40.659Z,99.90
2019-02-24T02:29:10.537Z,99.90
2019-02-24T02:31:40.253Z,99.90
2019-02-24T02:34:10.096Z,99.90
2019-02-24T02:36:39.890Z,99.90
2019-02-24T02:39:10.058Z,99.90
2019-02-24T02:41:39.798Z,99.90
2019-02-24T02:44:09.522Z,99.90
2019-02-24T02:46:39.329Z,99.90
2019-02-24T02:49:09.111Z,99.90
2019-02-24T02:51:38.912Z,99.90
2019-02-24T02:54:08.693Z,99.90
2019-02-24T02:56:38.382Z,99.90
2019-02-24T02:59:08.178Z,99.90
2019-02-24T03:01:37.845Z,98.00
2019-02-24T03:04:07.540Z,99.20
2019-02-24T03:06:58.907Z,99.90
2019-02-24T03:09:28.669Z,99.90
2019-02-24T03:11:58.438Z,99.90
2019-02-24T03:14:28.141Z,99.90
2019-02-24T03:17:00.044Z,99.90
2019-02-24T03:19:29.803Z,99.90
2019-02-24T03:21:59.581Z,99.90
2019-02-24T03:24:29.389Z,99.90
2019-02-24T03:26:59.196Z,99.70
2019-02-24T03:29:29.044Z,98.20
2019-02-24T03:31:58.804Z,99.90
2019-02-24T03:34:28.532Z,99.90
2019-02-24T03:36:58.304Z,99.90
2019-02-24T03:39:28.090Z,98.30
2019-02-24T03:41:57.877Z,96.90
2019-02-24T03:44:27.626Z,95.90
2019-02-24T03:46:57.301Z,99.30
2019-02-24T03:49:27.055Z,99.90
2019-02-24T03:51:56.814Z,99.90
2019-02-24T03:54:26.584Z,99.90
2019-02-24T03:56:56.226Z,99.90
2019-02-24T03:59:26.038Z,99.90
2019-02-24T04:01:55.714Z,99.90
2019-02-24T04:04:25.478Z,99.90
2019-02-24T04:06:55.126Z,99.90
2019-02-24T04:09:24.792Z,99.90
2019-02-24T04:11:54.597Z,99.90
2019-02-24T04:14:24.338Z,99.90
2019-02-24T04:16:53.957Z,99.90
2019-02-24T04:19:23.738Z,99.50
2019-02-24T04:21:53.517Z,99.90
2019-02-24T04:24:23.282Z,99.90
2019-02-24T04:26:53.053Z,99.90
2019-02-24T04:29:25.222Z,99.90
2019-02-24T04:31:55.513Z,99.90
2019-02-24T04:34:25.254Z,99.90
2019-02-24T04:36:54.942Z,99.90
2019-02-24T04:39:24.622Z,99.90
2019-02-24T04:41:54.373Z,99.90
2019-02-24T04:44:24.078Z,99.90
2019-02-24T04:46:53.828Z,99.90
2019-02-24T04:49:23.564Z,99.90
2019-02-24T04:51:53.220Z,99.90
2019-02-24T04:54:23.494Z,99.50
2019-02-24T04:56:53.150Z,99.90
2019-02-24T04:59:22.953Z,99.90
2019-02-24T05:01:52.671Z,99.90
2019-02-24T05:04:22.353Z,99.90
2019-02-24T05:06:52.130Z,99.90
2019-02-24T05:09:22.211Z,99.90
2019-02-24T05:11:51.841Z,99.90
2019-02-24T05:14:21.642Z,99.90
2019-02-24T05:16:51.356Z,99.90
2019-02-24T05:19:21.021Z,99.90
2019-02-24T05:21:50.738Z,99.90
2019-02-24T05:24:20.501Z,99.90
2019-02-24T05:26:50.293Z,99.90
2019-02-24T05:29:20.531Z,99.70
2019-02-24T05:31:50.522Z,99.90
2019-02-24T05:34:20.304Z,98.80
2019-02-24T05:36:49.991Z,99.90
2019-02-24T05:39:19.743Z,99.90
2019-02-24T05:41:49.504Z,96.20
2019-02-24T05:44:19.263Z,97.80
2019-02-24T05:46:50.307Z,97.20
2019-02-24T05:49:20.029Z,96.20
2019-02-24T05:51:49.693Z,92.30
2019-02-24T05:54:19.431Z,97.30
2019-02-24T05:56:49.160Z,94.60
2019-02-24T05:59:18.800Z,95.00
2019-02-24T06:01:48.469Z,91.10
2019-02-24T06:04:18.268Z,90.00
2019-02-24T06:06:47.935Z,90.30
2019-02-24T06:09:17.725Z,93.00
2019-02-24T06:11:47.496Z,94.40
2019-02-24T06:14:17.245Z,90.30
2019-02-24T06:16:47.031Z,89.80
2019-02-24T06:19:16.847Z,87.20
2019-02-24T06:21:46.597Z,87.40
2019-02-24T06:24:16.411Z,90.20
2019-02-24T06:26:46.200Z,91.60
2019-02-24T06:29:15.920Z,93.80
2019-02-24T06:31:45.780Z,96.70
2019-02-24T06:34:15.863Z,94.70
2019-02-24T06:36:45.610Z,90.20
2019-02-24T06:39:15.289Z,84.70
2019-02-24T06:41:45.011Z,84.40
2019-02-24T06:44:14.756Z,75.10
2019-02-24T06:46:44.502Z,75.00
2019-02-24T06:49:14.246Z,71.70
2019-02-24T06:51:44.039Z,73.70
2019-02-24T06:54:13.784Z,78.90
2019-02-24T06:56:44.050Z,74.40
2019-02-24T06:59:13.829Z,73.70
2019-02-24T07:01:44.653Z,74.40
2019-02-24T07:04:14.517Z,78.80
2019-02-24T07:06:44.164Z,81.50
2019-02-24T07:09:13.877Z,97.20
2019-02-24T07:11:43.593Z,91.80
2019-02-24T07:14:13.398Z,93.70
2019-02-24T07:16:43.151Z,90.60
2019-02-24T07:19:13.214Z,90.10
2019-02-24T07:21:42.881Z,85.00
2019-02-24T07:24:12.604Z,84.10
2019-02-24T07:26:42.392Z,82.50
2019-02-24T07:29:12.191Z,80.20
2019-02-24T07:31:41.921Z,79.20
2019-02-24T07:34:11.703Z,78.00
2019-02-24T07:36:41.473Z,82.90
2019-02-24T07:39:11.205Z,82.70
2019-02-24T07:41:40.927Z,79.30
2019-02-24T07:44:10.718Z,83.20
2019-02-24T07:46:44.872Z,70.00
2019-02-24T07:49:14.641Z,71.60
2019-02-24T07:51:44.515Z,70.60
2019-02-24T07:54:14.306Z,66.50
2019-02-24T07:56:44.019Z,66.40
2019-02-24T07:59:14.146Z,69.70
2019-02-24T08:01:43.842Z,76.40
2019-02-24T08:04:13.549Z,72.60
2019-02-24T08:06:43.271Z,68.50
2019-02-24T08:09:14.842Z,71.40
2019-02-24T08:11:44.545Z,66.30
2019-02-24T08:14:14.356Z,64.20
2019-02-24T08:16:44.133Z,76.80
2019-02-24T08:19:13.875Z,68.00
2019-02-24T08:21:43.690Z,71.70
2019-02-24T08:24:13.466Z,73.90
2019-02-24T08:26:43.233Z,70.60
2019-02-24T08:29:13.091Z,64.10
2019-02-24T08:31:43.017Z,66.40
2019-02-24T08:34:13.105Z,69.10
2019-02-24T08:36:42.909Z,68.60
2019-02-24T08:39:12.685Z,60.50
2019-02-24T08:41:42.393Z,62.70
2019-02-24T08:44:12.091Z,65.60
2019-02-24T08:46:41.835Z,62.80
2019-02-24T08:49:11.665Z,68.20
2019-02-24T08:51:41.489Z,74.70
2019-02-24T08:54:11.225Z,65.00
2019-02-24T08:56:41.034Z,61.60
2019-02-24T08:59:10.786Z,61.60
2019-02-24T09:01:40.543Z,63.40
2019-02-24T09:04:11.299Z,60.00
2019-02-24T09:06:41.066Z,60.10
2019-02-24T09:09:10.786Z,63.10
2019-02-24T09:11:40.446Z,58.60
2019-02-24T09:14:10.253Z,56.10
2019-02-24T09:16:39.923Z,55.70
2019-02-24T09:19:09.733Z,55.30
2019-02-24T09:21:39.476Z,54.60
2019-02-24T09:24:09.182Z,58.70
2019-02-24T09:26:38.938Z,57.50
2019-02-24T09:29:08.693Z,61.40
2019-02-24T09:31:39.453Z,57.60
2019-02-24T09:34:09.199Z,57.00
2019-02-24T09:36:38.983Z,56.40
2019-02-24T09:39:08.803Z,59.40
2019-02-24T09:41:38.605Z,62.70
2019-02-24T09:44:08.289Z,61.30
2019-02-24T09:46:38.010Z,58.90
2019-02-24T09:49:07.758Z,64.50
2019-02-24T09:51:37.404Z,56.50
2019-02-24T09:54:07.301Z,57.00
2019-02-24T09:56:36.970Z,54.00
2019-02-24T09:59:06.682Z,62.00
2019-02-24T10:01:36.441Z,53.30
2019-02-24T10:04:06.153Z,53.40
2019-02-24T10:06:35.829Z,54.60
2019-02-24T10:09:05.565Z,55.50
2019-02-24T10:11:35.283Z,53.40
2019-02-24T10:14:04.998Z,55.10
2019-02-24T10:16:34.657Z,54.10
2019-02-24T10:19:04.300Z,53.70
2019-02-24T10:21:34.004Z,51.40
2019-02-24T10:24:03.720Z,52.30
2019-02-24T10:26:33.377Z,51.90
2019-02-24T10:29:03.182Z,50.80
2019-02-24T10:31:32.840Z,57.10
2019-02-24T10:34:02.651Z,55.40
2019-02-24T10:36:32.416Z,54.50
2019-02-24T10:39:02.180Z,51.40
2019-02-24T10:41:31.825Z,53.10
2019-02-24T10:44:01.568Z,45.40
2019-02-24T10:46:31.177Z,49.00
2019-02-24T10:49:03.324Z,52.70
2019-02-24T10:51:33.258Z,44.90
2019-02-24T10:54:03.028Z,46.00
2019-02-24T10:56:32.732Z,42.90
2019-02-24T10:59:02.466Z,43.40
2019-02-24T11:01:32.233Z,40.00
2019-02-24T11:04:02.009Z,45.10
2019-02-24T11:06:31.762Z,48.10
2019-02-24T11:09:01.526Z,44.10
2019-02-24T11:11:31.249Z,42.80
2019-02-24T11:14:01.028Z,42.00
2019-02-24T11:16:32.190Z,37.50
2019-02-24T11:19:02.040Z,42.30
2019-02-24T11:21:31.653Z,40.40
2019-02-24T11:24:01.383Z,39.70
2019-02-24T11:26:31.103Z,40.20
2019-02-24T11:29:00.904Z,39.00
2019-02-24T11:31:38.175Z,36.50
2019-02-24T11:34:01.835Z,34.80
2019-02-24T11:36:31.488Z,34.40
2019-02-24T11:39:01.208Z,40.50
2019-02-24T11:41:30.905Z,38.00
2019-02-24T11:44:00.630Z,34.80
2019-02-24T11:46:30.280Z,36.40
2019-02-24T11:48:59.991Z,33.90
2019-02-24T11:51:29.744Z,37.30
2019-02-24T11:53:59.425Z,37.90
2019-02-24T11:56:29.162Z,43.20
2019-02-24T11:58:58.937Z,40.60
2019-02-24T12:01:28.691Z,37.20
2019-02-24T12:03:58.409Z,36.20
2019-02-24T12:06:28.065Z,42.90
2019-02-24T12:09:05.007Z,41.00
2019-02-24T12:11:28.982Z,37.30
2019-02-24T12:13:58.714Z,33.80
2019-02-24T12:16:28.502Z,34.40
2019-02-24T12:18:58.604Z,36.40
2019-02-24T12:21:28.346Z,36.40
2019-02-24T12:23:58.034Z,40.40
2019-02-24T12:26:27.788Z,40.30
2019-02-24T12:28:57.621Z,40.00
2019-02-24T12:31:27.411Z,45.80
2019-02-24T12:33:57.178Z,46.20
2019-02-24T12:36:26.879Z,43.80
2019-02-24T12:38:56.529Z,44.70
2019-02-24T12:41:26.333Z,42.50
2019-02-24T12:43:56.083Z,42.50
2019-02-24T12:46:25.766Z,43.10
2019-02-24T12:48:55.521Z,45.70
2019-02-24T12:51:25.214Z,43.40
2019-02-24T12:53:55.045Z,39.50
2019-02-24T12:56:24.786Z,48.10
2019-02-24T12:58:54.476Z,48.50
2019-02-24T13:01:24.122Z,47.20
2019-02-24T13:03:53.890Z,46.00
2019-02-24T13:06:23.540Z,49.30
2019-02-24T13:08:53.223Z,43.30
2019-02-24T13:11:23.126Z,40.80
2019-02-24T13:13:52.830Z,40.10
2019-02-24T13:16:22.617Z,42.90
2019-02-24T13:18:52.293Z,45.80
2019-02-24T13:21:21.976Z,47.10
2019-02-24T13:23:51.692Z,42.80
2019-02-24T13:26:21.458Z,41.40
2019-02-24T13:28:51.101Z,38.30
2019-02-24T13:31:20.835Z,40.00
2019-02-24T13:33:50.543Z,42.00
2019-02-24T13:36:20.241Z,37.80
2019-02-24T13:38:50.034Z,42.60
2019-02-24T13:41:19.673Z,39.30
2019-02-24T13:43:49.433Z,43.00
2019-02-24T13:46:19.179Z,42.10
2019-02-24T13:48:48.928Z,43.50
2019-02-24T13:51:18.546Z,49.00
2019-02-24T13:53:48.265Z,43.70
2019-02-24T13:56:17.980Z,43.70
2019-02-24T13:58:47.727Z,39.80
2019-02-24T14:01:17.400Z,46.20
2019-02-24T14:03:47.069Z,45.00
2019-02-24T14:06:16.840Z,40.40
2019-02-24T14:08:46.489Z,40.20
2019-02-24T14:11:16.181Z,43.90
2019-02-24T14:13:45.837Z,44.30
2019-02-24T14:16:15.577Z,50.50
2019-02-24T14:18:45.294Z,49.00
2019-02-24T14:21:14.949Z,48.10
2019-02-24T14:23:44.744Z,45.30
2019-02-24T14:26:14.451Z,50.20
2019-02-24T14:28:44.114Z,47.50
2019-02-24T14:31:14.379Z,48.70
2019-02-24T14:33:44.035Z,51.00
2019-02-24T14:36:13.714Z,53.80
2019-02-24T14:38:43.446Z,53.70
2019-02-24T14:41:13.102Z,52.30
2019-02-24T14:43:42.701Z,52.00
2019-02-24T14:46:12.444Z,54.30
2019-02-24T14:48:42.133Z,53.80
2019-02-24T14:51:11.873Z,54.50
2019-02-24T14:53:41.641Z,53.60
2019-02-24T14:56:11.520Z,51.70
2019-02-24T14:58:41.242Z,48.20
2019-02-24T15:01:10.988Z,55.20
2019-02-24T15:03:40.679Z,55.40
2019-02-24T15:06:10.391Z,55.80
2019-02-24T15:08:40.142Z,54.70
2019-02-24T15:11:09.894Z,48.30
2019-02-24T15:13:39.624Z,50.90
2019-02-24T15:16:09.424Z,51.00
2019-02-24T15:18:39.530Z,53.60
2019-02-24T15:21:09.316Z,52.70
2019-02-24T15:23:39.053Z,49.60
2019-02-24T15:26:08.797Z,50.20
2019-02-24T15:28:38.512Z,50.90
2019-02-24T15:31:08.186Z,52.60
2019-02-24T15:33:37.896Z,55.90
2019-02-24T15:36:07.650Z,54.70
2019-02-24T15:38:37.405Z,57.90
2019-02-24T15:41:07.029Z,59.00
2019-02-24T15:43:36.788Z,57.10
2019-02-24T15:46:06.603Z,56.00
2019-02-24T15:48:36.341Z,55.80
2019-02-24T15:51:06.133Z,54.60
2019-02-24T15:53:35.845Z,59.50
2019-02-24T15:56:05.980Z,56.40
2019-02-24T15:58:35.760Z,57.90
2019-02-24T16:01:06.581Z,56.90
2019-02-24T16:03:36.314Z,59.40
2019-02-24T16:06:06.000Z,60.80
2019-02-24T16:08:35.649Z,57.80
2019-02-24T16:11:05.346Z,62.90
2019-02-24T16:13:35.071Z,59.50
2019-02-24T16:16:04.809Z,56.50
2019-02-24T16:18:34.541Z,62.50
2019-02-24T16:21:04.316Z,65.70
2019-02-24T16:23:33.977Z,67.90
2019-02-24T16:26:04.165Z,63.90
2019-02-24T16:28:33.849Z,66.10
2019-02-24T16:31:03.486Z,68.60
2019-02-24T16:33:33.290Z,65.90
2019-02-24T16:36:03.000Z,60.30
2019-02-24T16:38:32.745Z,68.30
2019-02-24T16:41:02.601Z,62.00
2019-02-24T16:43:32.306Z,61.80
2019-02-24T16:46:01.925Z,63.40
2019-02-24T16:48:31.609Z,65.60
2019-02-24T16:51:01.605Z,64.10
2019-02-24T16:53:31.306Z,73.60
2019-02-24T16:56:01.070Z,70.80
2019-02-24T16:58:30.709Z,84.30
2019-02-24T17:01:00.591Z,90.80
2019-02-24T17:03:30.385Z,81.30
2019-02-24T17:06:00.419Z,75.00
2019-02-24T17:08:30.068Z,75.40
2019-02-24T17:11:07.109Z,79.20
2019-02-24T17:13:31.166Z,76.40
2019-02-24T17:16:00.790Z,82.80
2019-02-24T17:18:30.479Z,74.40
2019-02-24T17:21:00.072Z,78.90
2019-02-24T17:23:29.790Z,79.20
2019-02-24T17:25:59.473Z,90.20
2019-02-24T17:28:31.442Z,94.60
2019-02-24T17:31:01.299Z,96.70
2019-02-24T17:33:32.664Z,93.10
2019-02-24T17:36:02.634Z,86.30
2019-02-24T17:38:32.341Z,85.00
2019-02-24T17:41:02.213Z,78.60
2019-02-24T17:43:31.873Z,79.20
2019-02-24T17:46:01.594Z,77.10
2019-02-24T17:48:31.338Z,74.60
2019-02-24T17:51:01.033Z,74.70
2019-02-24T17:53:30.860Z,73.90
2019-02-24T17:56:00.697Z,71.30
2019-02-24T17:58:30.451Z,63.10
2019-02-24T18:01:02.304Z,61.80
2019-02-24T18:03:39.124Z,58.20
2019-02-24T18:06:03.332Z,57.50
2019-02-24T18:08:33.013Z,73.40
2019-02-24T18:11:02.702Z,70.80
2019-02-24T18:13:32.565Z,63.70
2019-02-24T18:16:02.949Z,62.60
2019-02-24T18:18:32.877Z,57.90
2019-02-24T18:21:02.577Z,56.40
2019-02-24T18:23:32.372Z,59.10
2019-02-24T18:26:02.091Z,60.40
2019-02-24T18:28:31.921Z,62.00
2019-02-24T18:31:01.605Z,66.10
2019-02-24T18:33:31.418Z,59.80
2019-02-24T18:36:01.206Z,59.70
2019-02-24T18:38:30.943Z,60.70
2019-02-24T18:41:00.618Z,64.90
2019-02-24T18:43:30.376Z,57.70
2019-02-24T18:46:00.174Z,58.60
2019-02-24T18:48:29.955Z,56.40
2019-02-24T18:50:59.825Z,54.90
2019-02-24T18:53:29.608Z,55.30
2019-02-24T18:55:59.488Z,54.50
2019-02-24T18:58:29.311Z,55.70
2019-02-24T19:00:59.152Z,57.10
2019-02-24T19:03:28.990Z,53.20
2019-02-24T19:05:58.778Z,52.50
2019-02-24T19:08:28.661Z,52.90
2019-02-24T19:10:58.606Z,53.80
2019-02-24T19:13:28.377Z,53.10
2019-02-24T19:15:58.135Z,51.70
2019-02-24T19:18:27.891Z,56.00
2019-02-24T19:20:57.738Z,52.20
2019-02-24T19:23:27.561Z,52.70
2019-02-24T19:25:57.422Z,53.30
2019-02-24T19:28:27.136Z,51.40
2019-02-24T19:30:56.865Z,52.70
2019-02-24T19:33:26.613Z,51.70
2019-02-24T19:35:56.389Z,52.00
2019-02-24T19:38:26.065Z,50.70
2019-02-24T19:40:55.677Z,52.30
2019-02-24T19:43:25.530Z,53.70
2019-02-24T19:45:55.281Z,50.30
2019-02-24T19:48:26.479Z,49.60
2019-02-24T19:50:56.559Z,53.20
2019-02-24T19:53:26.237Z,51.00
2019-02-24T19:55:55.986Z,54.10
2019-02-24T19:58:25.675Z,54.00
2019-02-24T20:00:56.195Z,53.00
2019-02-24T20:03:25.858Z,53.60
2019-02-24T20:05:55.554Z,54.90
2019-02-24T20:08:25.289Z,55.90
2019-02-24T20:10:55.030Z,55.20
2019-02-24T20:13:24.784Z,53.40
2019-02-24T20:15:54.454Z,50.30
2019-02-24T20:18:24.240Z,52.30
2019-02-24T20:20:54.006Z,54.70
2019-02-24T20:23:23.809Z,54.20
2019-02-24T20:25:53.634Z,49.50
2019-02-24T20:28:23.421Z,50.00
2019-02-24T20:30:53.174Z,54.90
2019-02-24T20:33:22.817Z,55.50
2019-02-24T20:35:52.537Z,57.30
2019-02-24T20:38:22.231Z,52.00
2019-02-24T20:40:51.946Z,54.10
2019-02-24T20:43:21.689Z,56.20
2019-02-24T20:45:51.733Z,59.10
2019-02-24T20:48:21.605Z,54.30
2019-02-24T20:50:51.367Z,54.10
2019-02-24T20:53:21.148Z,55.50
2019-02-24T20:55:50.981Z,52.20
2019-02-24T20:58:20.676Z,52.60
2019-02-24T21:00:50.453Z,48.60
2019-02-24T21:03:20.053Z,47.50
2019-02-24T21:05:49.696Z,45.50
2019-02-24T21:08:19.433Z,45.30
2019-02-24T21:10:49.197Z,46.30
2019-02-24T21:13:18.922Z,46.20
2019-02-24T21:15:48.692Z,45.40
2019-02-24T21:18:18.333Z,45.80
2019-02-24T21:20:48.037Z,46.30
2019-02-24T21:23:18.420Z,49.20
2019-02-24T21:25:48.160Z,46.50
2019-02-24T21:28:17.841Z,46.20
2019-02-24T21:30:47.625Z,46.00
2019-02-24T21:33:17.365Z,50.50
2019-02-24T21:35:47.074Z,46.10
2019-02-24T21:38:16.738Z,44.50
2019-02-24T21:40:46.401Z,47.70
2019-02-24T21:43:16.120Z,46.40
2019-02-24T21:45:45.912Z,51.80
2019-02-24T21:48:15.572Z,48.50
2019-02-24T21:50:45.250Z,46.70
2019-02-24T21:53:14.945Z,48.90
2019-02-24T21:55:44.565Z,46.60
2019-02-24T21:58:14.300Z,48.70
2019-02-24T22:00:45.422Z,49.20
2019-02-24T22:03:15.120Z,45.80
2019-02-24T22:05:45.223Z,44.50
2019-02-24T22:08:14.899Z,44.30
2019-02-24T22:10:44.997Z,44.00
2019-02-24T22:13:20.305Z,43.50
2019-02-24T22:15:50.051Z,47.40
2019-02-24T22:18:19.849Z,45.90
2019-02-24T22:20:49.542Z,43.10
2019-02-24T22:23:19.240Z,45.60
2019-02-24T22:25:48.996Z,45.00
2019-02-24T22:28:18.717Z,45.70
2019-02-24T22:30:51.597Z,42.80
2019-02-24T22:33:21.347Z,44.10
2019-02-24T22:38:51.326Z,45.50
2019-02-24T22:41:21.001Z,42.30
2019-02-24T22:43:50.765Z,40.20
2019-02-24T22:46:21.337Z,41.90
2019-02-24T22:48:53.291Z,40.90
2019-02-24T22:51:23.039Z,41.20
2019-02-24T22:53:53.090Z,40.30
2019-02-24T22:56:22.966Z,43.80
2019-02-24T22:58:52.641Z,45.30
2019-02-24T23:01:28.520Z,47.60
2019-02-24T23:04:37.395Z,44.10
2019-02-24T23:07:18.679Z,45.70
2019-02-24T23:10:01.623Z,51.00
2019-02-24T23:13:00.471Z,49.10
2019-02-24T23:16:02.187Z,45.40
2019-02-24T23:22:01.461Z,46.30
2019-02-24T23:24:50.644Z,46.60
2019-02-24T23:27:38.349Z,44.30
2019-02-24T23:30:30.906Z,48.90
2019-02-24T23:33:22.133Z,49.70
2019-02-24T23:42:25.820Z,46.10
2019-02-24T23:45:27.399Z,47.70
2019-02-24T23:52:37.885Z,41.50
2019-02-24T23:55:30.385Z,43.20
2019-02-24T23:58:07.813Z,41.10
